Time;durP1;ratioP1;P1;durP2;ratioP2;P2;SDS_P1;SDS_P2;PMS_P1;PMS_P2;Temp;Humidity;BMP_temperature;BMP_pressure;BME280_temperature;BME280_humidity;BME280_pressure;Samples;Min_cycle;Max_cycle;Signal;HPM_P1;HPM_P2
2021/01/11 00:00:10;;;;;;;22.00;10.83;;;3.50;99.90;;;;;;5036876;28;20292;-73
2021/01/11 00:02:36;;;;;;;21.83;12.57;;;3.50;99.90;;;;;;5031492;28;20247;-73
2021/01/11 00:05:07;;;;;;;22.27;12.50;;;3.60;99.90;;;;;;5033953;28;20198;-73
2021/01/11 00:07:34;;;;;;;24.20;13.63;;;3.40;99.90;;;;;;5017884;28;20205;-73
2021/01/11 00:10:03;;;;;;;24.03;12.27;;;3.50;99.90;;;;;;5028405;28;20274;-73
2021/01/11 00:12:35;;;;;;;27.07;14.00;;;3.50;99.90;;;;;;5034692;28;20245;-73
2021/01/11 00:15:04;;;;;;;23.87;12.30;;;3.50;99.90;;;;;;5025324;28;20208;-72
2021/01/11 00:17:30;;;;;;;21.10;11.40;;;3.50;99.90;;;;;;5019783;28;20247;-73
2021/01/11 00:19:57;;;;;;;26.13;12.93;;;3.40;99.90;;;;;;5031384;28;20279;-73
2021/01/11 00:22:23;;;;;;;26.80;14.63;;;3.50;99.90;;;;;;5018170;28;20324;-73
2021/01/11 00:24:49;;;;;;;24.07;12.97;;;3.40;99.90;;;;;;5036101;28;20330;-73
2021/01/11 00:27:17;;;;;;;31.87;15.20;;;3.40;99.90;;;;;;5039254;28;20313;-73
2021/01/11 00:29:43;;;;;;;25.07;13.13;;;3.40;99.90;;;;;;5033523;28;20304;-73
2021/01/11 00:32:09;;;;;;;31.13;15.37;;;3.40;99.90;;;;;;5017542;28;20246;-73
2021/01/11 00:34:35;;;;;;;24.90;14.23;;;3.50;99.90;;;;;;5035676;28;20218;-73
2021/01/11 00:37:02;;;;;;;31.63;14.17;;;3.40;99.90;;;;;;5035386;28;20285;-73
2021/01/11 00:39:28;;;;;;;27.07;14.90;;;3.50;99.90;;;;;;5031047;28;20645;-72
2021/01/11 00:41:59;;;;;;;30.70;15.27;;;3.30;99.90;;;;;;5036222;28;20493;-72
2021/01/11 00:44:26;;;;;;;27.07;14.87;;;3.30;99.90;;;;;;5033324;28;20270;-73
2021/01/11 00:46:57;;;;;;;27.37;14.27;;;3.30;99.90;;;;;;5024627;28;20217;-73
2021/01/11 00:49:24;;;;;;;28.53;14.67;;;3.20;99.90;;;;;;5018035;28;20236;-72
2021/01/11 00:51:50;;;;;;;26.57;12.63;;;3.30;99.90;;;;;;5039028;28;20203;-72
2021/01/11 00:54:17;;;;;;;30.40;15.57;;;3.20;99.90;;;;;;5019375;28;20204;-73
2021/01/11 00:56:43;;;;;;;29.47;15.90;;;3.20;99.90;;;;;;5031024;28;20303;-72
2021/01/11 00:59:09;;;;;;;29.37;17.60;;;3.20;99.90;;;;;;5040556;28;20206;-72
2021/01/11 01:01:35;;;;;;;29.83;15.43;;;3.20;99.90;;;;;;5042954;28;20541;-72
2021/01/11 01:04:04;;;;;;;31.93;16.50;;;3.30;99.90;;;;;;5041242;28;20292;-73
2021/01/11 01:06:31;;;;;;;28.70;15.70;;;3.10;99.90;;;;;;5021450;28;20227;-73
2021/01/11 01:08:57;;;;;;;34.50;17.27;;;3.20;99.90;;;;;;5038514;28;20263;-72
2021/01/11 01:11:23;;;;;;;32.23;16.63;;;3.10;99.90;;;;;;5039465;28;20312;-73
2021/01/11 01:13:50;;;;;;;32.20;16.17;;;3.20;99.90;;;;;;5034701;28;20615;-72
2021/01/11 01:16:26;;;;;;;31.33;17.53;;;3.00;99.90;;;;;;5022618;28;20201;-72
2021/01/11 01:18:54;;;;;;;32.97;17.13;;;2.90;99.90;;;;;;5037262;28;20259;-73
2021/01/11 01:21:21;;;;;;;36.90;18.73;;;2.80;99.90;;;;;;5039341;28;20207;-73
2021/01/11 01:23:47;;;;;;;36.40;18.43;;;2.80;99.90;;;;;;5037950;28;20603;-73
2021/01/11 01:26:14;;;;;;;31.63;16.93;;;2.80;99.90;;;;;;5026156;28;20201;-72
2021/01/11 01:28:40;;;;;;;36.07;17.50;;;2.70;99.90;;;;;;5037044;28;20266;-72
2021/01/11 01:31:06;;;;;;;32.37;16.93;;;2.70;99.90;;;;;;5026255;28;20381;-72
2021/01/11 01:33:33;;;;;;;31.83;17.03;;;2.80;99.90;;;;;;5038535;28;20257;-72
2021/01/11 01:35:59;;;;;;;35.73;17.37;;;2.70;99.90;;;;;;5035177;28;20239;-72
2021/01/11 01:38:26;;;;;;;38.10;19.37;;;2.60;99.90;;;;;;5039511;28;20203;-73
2021/01/11 01:40:52;;;;;;;35.57;17.53;;;2.60;99.90;;;;;;5035712;28;20258;-72
2021/01/11 01:43:18;;;;;;;36.00;17.47;;;2.60;99.90;;;;;;5036350;28;20225;-72
2021/01/11 01:45:44;;;;;;;38.60;17.87;;;2.60;99.90;;;;;;5033227;28;20640;-72
2021/01/11 01:48:11;;;;;;;35.97;17.23;;;2.50;99.90;;;;;;5041103;28;20280;-73
2021/01/11 01:50:38;;;;;;;40.53;18.43;;;2.50;99.90;;;;;;5039874;28;20233;-73
2021/01/11 01:53:05;;;;;;;34.03;17.17;;;2.50;99.90;;;;;;5037826;28;20201;-73
2021/01/11 01:55:32;;;;;;;41.20;18.17;;;2.50;99.90;;;;;;5034468;28;20251;-72
2021/01/11 01:58:02;;;;;;;35.47;18.70;;;2.60;99.90;;;;;;5022370;28;20345;-72
2021/01/11 02:00:28;;;;;;;33.67;16.87;;;2.60;99.90;;;;;;5037427;28;20213;-72
2021/01/11 02:02:54;;;;;;;36.80;16.60;;;2.50;99.90;;;;;;5036193;28;20274;-73
2021/01/11 02:05:21;;;;;;;34.63;17.53;;;2.50;99.90;;;;;;5038339;28;20261;-73
2021/01/11 02:08:06;;;;;;;37.43;16.63;;;2.30;99.90;;;;;;5035988;28;20271;-73
2021/01/11 02:10:47;;;;;;;28.93;15.53;;;2.30;99.90;;;;;;5038809;28;20199;-73
2021/01/11 02:13:16;;;;;;;32.70;17.40;;;2.20;99.90;;;;;;5033965;28;20294;-73
2021/01/11 02:16:07;;;;;;;38.83;15.87;;;2.30;99.90;;;;;;5039409;28;20247;-73
2021/01/11 02:18:42;;;;;;;33.60;16.77;;;2.20;99.90;;;;;;5037716;28;20415;-73
2021/01/11 02:21:24;;;;;;;39.03;16.03;;;2.20;99.90;;;;;;5041517;28;20225;-73
2021/01/11 02:24:22;;;;;;;36.93;16.17;;;2.20;99.90;;;;;;5041961;28;20238;-73
2021/01/11 02:27:14;;;;;;;33.87;14.87;;;2.20;99.90;;;;;;5039848;28;20316;-73
2021/01/11 02:29:58;;;;;;;36.37;15.97;;;2.20;99.90;;;;;;5039518;28;20283;-74
2021/01/11 02:32:26;;;;;;;39.67;17.33;;;2.20;99.90;;;;;;5039404;28;20201;-74
2021/01/11 02:34:55;;;;;;;39.87;17.63;;;2.30;99.90;;;;;;5038344;28;20220;-74
2021/01/11 02:37:22;;;;;;;41.23;17.67;;;2.30;99.90;;;;;;5023870;28;20265;-73
2021/01/11 02:39:48;;;;;;;33.80;15.70;;;2.30;99.90;;;;;;5038408;28;20232;-73
2021/01/11 02:42:14;;;;;;;36.70;17.63;;;2.30;99.90;;;;;;5023284;28;20311;-73
2021/01/11 02:44:41;;;;;;;39.00;16.73;;;2.30;99.90;;;;;;5039274;28;20208;-73
2021/01/11 02:47:10;;;;;;;34.70;15.47;;;2.30;99.90;;;;;;5042757;28;20199;-73
2021/01/11 02:49:44;;;;;;;42.03;17.83;;;2.30;99.90;;;;;;5037620;28;20210;-73
2021/01/11 02:52:47;;;;;;;34.83;15.67;;;2.30;99.90;;;;;;5039770;28;20273;-73
2021/01/11 02:55:32;;;;;;;33.20;15.30;;;2.30;99.90;;;;;;5037907;28;20208;-73
2021/01/11 02:58:34;;;;;;;39.83;17.17;;;2.30;99.90;;;;;;5038868;28;20243;-73
2021/01/11 03:01:05;;;;;;;37.70;17.27;;;2.30;99.90;;;;;;5015724;28;20305;-73
2021/01/11 03:03:32;;;;;;;33.60;15.20;;;2.30;99.90;;;;;;5038047;28;20323;-73
2021/01/11 03:05:59;;;;;;;41.27;17.63;;;2.40;99.90;;;;;;5033074;28;20211;-73
2021/01/11 03:08:25;;;;;;;35.43;16.53;;;2.40;99.90;;;;;;5039936;28;22063;-73
2021/01/11 03:10:51;;;;;;;28.27;13.67;;;2.40;99.90;;;;;;5033233;28;20617;-73
2021/01/11 03:13:20;;;;;;;43.03;16.73;;;2.30;99.90;;;;;;5019476;28;20216;-73
2021/01/11 03:15:47;;;;;;;40.40;17.17;;;2.30;99.90;;;;;;5037828;28;20286;-73
2021/01/11 03:18:13;;;;;;;39.13;17.00;;;2.30;99.90;;;;;;5018852;28;20731;-74
2021/01/11 03:20:40;;;;;;;31.97;14.97;;;2.30;99.90;;;;;;5039064;28;20648;-73
2021/01/11 03:23:06;;;;;;;34.93;16.93;;;2.20;99.90;;;;;;5037849;28;20219;-74
2021/01/11 03:25:32;;;;;;;35.07;14.07;;;2.20;99.90;;;;;;5018952;28;20237;-73
2021/01/11 03:27:58;;;;;;;38.00;16.37;;;2.10;99.90;;;;;;5035911;28;20415;-73
2021/01/11 03:30:25;;;;;;;42.47;14.93;;;2.20;99.90;;;;;;5034362;28;20231;-74
2021/01/11 03:32:51;;;;;;;38.33;16.40;;;2.20;99.90;;;;;;5036682;28;20203;-73
2021/01/11 03:35:18;;;;;;;44.23;16.60;;;2.20;99.90;;;;;;5037423;28;20269;-72
2021/01/11 03:37:44;;;;;;;38.90;16.37;;;2.20;99.90;;;;;;5022076;28;20690;-74
2021/01/11 03:40:11;;;;;;;45.30;16.13;;;2.30;99.90;;;;;;5034172;28;20295;-73
2021/01/11 03:42:41;;;;;;;37.70;15.47;;;2.30;99.90;;;;;;5031070;28;20674;-73
2021/01/11 03:45:09;;;;;;;39.53;16.40;;;2.40;99.90;;;;;;5053131;28;20255;-73
2021/01/11 03:47:36;;;;;;;39.63;16.70;;;2.30;99.90;;;;;;5022754;28;20273;-74
2021/01/11 03:50:05;;;;;;;42.60;16.50;;;2.30;99.90;;;;;;5036968;28;20253;-74
2021/01/11 03:52:38;;;;;;;35.43;15.50;;;2.40;99.90;;;;;;5037714;28;20293;-72
2021/01/11 03:55:04;;;;;;;35.47;15.00;;;2.40;99.90;;;;;;5036485;28;20282;-71
2021/01/11 03:57:31;;;;;;;41.63;17.50;;;2.40;99.90;;;;;;5047804;28;20304;-74
2021/01/11 03:59:58;;;;;;;38.40;15.83;;;2.40;99.90;;;;;;5036704;28;20294;-73
2021/01/11 04:02:25;;;;;;;41.07;16.70;;;2.40;99.90;;;;;;5038180;28;20261;-74
2021/01/11 04:04:51;;;;;;;42.17;17.50;;;2.50;99.90;;;;;;5021569;28;20247;-73
2021/01/11 04:07:18;;;;;;;47.67;17.03;;;2.50;99.90;;;;;;5032716;28;20273;-74
2021/01/11 04:09:44;;;;;;;37.97;16.80;;;2.50;99.90;;;;;;5031972;28;20254;-73
2021/01/11 04:12:11;;;;;;;46.87;16.57;;;2.60;99.90;;;;;;5019458;28;20777;-71
2021/01/11 04:14:39;;;;;;;48.00;17.10;;;2.50;99.90;;;;;;5033214;28;20342;-73
2021/01/11 04:17:05;;;;;;;49.10;18.10;;;2.50;99.90;;;;;;5037293;28;20293;-71
2021/01/11 04:19:31;;;;;;;48.27;17.53;;;2.40;99.90;;;;;;5031058;28;20310;-74
2021/01/11 04:21:58;;;;;;;44.53;16.93;;;2.40;99.90;;;;;;5036894;28;20683;-73
2021/01/11 04:24:24;;;;;;;47.03;17.53;;;2.40;99.90;;;;;;5035207;28;20345;-73
2021/01/11 04:26:51;;;;;;;49.33;17.77;;;2.50;99.90;;;;;;5031500;28;20228;-74
2021/01/11 04:29:17;;;;;;;46.43;16.10;;;2.40;99.90;;;;;;5019646;28;20291;-73
2021/01/11 04:31:47;;;;;;;46.70;16.67;;;2.50;99.90;;;;;;5033908;28;20357;-73
2021/01/11 04:34:14;;;;;;;50.93;19.37;;;2.50;99.90;;;;;;5037563;28;20207;-74
2021/01/11 04:36:41;;;;;;;40.53;16.90;;;2.50;99.90;;;;;;5023900;28;20235;-73
2021/01/11 04:39:08;;;;;;;42.20;17.60;;;2.60;99.90;;;;;;5020288;28;20266;-74
2021/01/11 04:41:35;;;;;;;47.60;18.33;;;2.60;99.90;;;;;;5037507;28;20527;-74
2021/01/11 04:44:07;;;;;;;46.37;17.10;;;2.60;99.90;;;;;;5021447;28;20306;-73
2021/01/11 04:46:34;;;;;;;42.67;16.40;;;2.60;99.90;;;;;;5019385;28;20200;-72
2021/01/11 04:49:01;;;;;;;45.93;18.50;;;2.60;99.90;;;;;;5019556;28;20350;-71
2021/01/11 04:51:30;;;;;;;40.80;16.97;;;2.60;99.90;;;;;;5016227;28;21804;-72
2021/01/11 04:53:59;;;;;;;47.60;18.13;;;2.60;99.90;;;;;;5031334;28;20219;-74
2021/01/11 04:56:26;;;;;;;45.30;17.03;;;2.60;99.90;;;;;;5021085;28;20601;-74
2021/01/11 04:58:55;;;;;;;45.67;18.07;;;2.60;99.90;;;;;;5035891;28;20231;-73
2021/01/11 05:01:24;;;;;;;40.40;17.00;;;2.60;99.90;;;;;;5029075;28;20588;-74
2021/01/11 05:03:51;;;;;;;41.20;18.80;;;2.70;99.90;;;;;;5033331;28;20247;-74
2021/01/11 05:06:19;;;;;;;50.17;18.43;;;2.70;99.90;;;;;;5037245;28;20671;-73
2021/01/11 05:08:45;;;;;;;40.20;16.73;;;2.70;99.90;;;;;;5038610;28;21095;-73
2021/01/11 05:11:12;;;;;;;45.80;18.77;;;2.80;99.90;;;;;;5028213;28;20561;-74
2021/01/11 05:13:40;;;;;;;40.67;17.53;;;2.80;99.90;;;;;;5049285;28;20281;-73
2021/01/11 05:16:13;;;;;;;40.53;18.43;;;2.80;99.90;;;;;;5036080;28;20204;-73
2021/01/11 05:18:41;;;;;;;38.77;18.03;;;2.80;99.90;;;;;;5023095;28;20261;-74
2021/01/11 05:21:08;;;;;;;39.77;19.73;;;2.80;99.90;;;;;;5021010;28;20281;-74
2021/01/11 05:23:36;;;;;;;43.70;20.90;;;2.80;99.90;;;;;;5034619;28;20270;-73
2021/01/11 05:26:13;;;;;;;40.50;19.50;;;2.80;99.90;;;;;;5037148;28;20207;-74
2021/01/11 05:28:40;;;;;;;40.47;18.60;;;2.80;99.90;;;;;;5033072;28;20234;-74
2021/01/11 05:31:07;;;;;;;41.60;18.27;;;2.80;99.90;;;;;;5035307;28;20216;-73
2021/01/11 05:33:34;;;;;;;37.33;17.23;;;2.80;99.90;;;;;;5016009;28;20219;-73
2021/01/11 05:36:12;;;;;;;41.57;18.43;;;2.80;99.90;;;;;;5027246;28;20240;-74
2021/01/11 05:38:46;;;;;;;42.17;20.27;;;2.80;99.90;;;;;;5036343;28;20218;-74
2021/01/11 05:41:13;;;;;;;37.10;17.50;;;2.80;99.90;;;;;;5033370;28;20258;-74
2021/01/11 05:43:39;;;;;;;40.23;19.50;;;2.80;99.90;;;;;;5039631;28;20252;-74
2021/01/11 05:46:27;;;;;;;32.57;16.73;;;2.90;99.90;;;;;;5036942;28;21208;-73
2021/01/11 05:49:02;;;;;;;33.77;17.87;;;2.80;99.90;;;;;;5060462;28;20694;-73
2021/01/11 05:51:29;;;;;;;30.40;14.90;;;2.80;99.90;;;;;;5040412;28;20227;-73
2021/01/11 05:53:56;;;;;;;33.10;16.67;;;2.80;99.90;;;;;;5021019;28;20226;-74
2021/01/11 05:56:24;;;;;;;34.90;18.10;;;2.80;99.90;;;;;;5024459;28;20208;-74
2021/01/11 05:59:06;;;;;;;28.40;15.03;;;2.80;99.90;;;;;;5037595;28;20220;-73
2021/01/11 06:01:34;;;;;;;28.97;17.23;;;2.80;99.90;;;;;;5037834;28;20204;-74
2021/01/11 06:04:06;;;;;;;37.63;18.30;;;2.80;99.90;;;;;;5037644;28;20304;-74
2021/01/11 06:06:33;;;;;;;30.83;16.43;;;2.90;99.90;;;;;;5018269;28;20289;-74
2021/01/11 06:08:59;;;;;;;28.80;15.93;;;2.90;99.90;;;;;;5020161;28;20297;-74
2021/01/11 06:11:27;;;;;;;29.63;15.70;;;2.90;99.90;;;;;;5018192;28;20778;-74
2021/01/11 06:13:58;;;;;;;29.03;15.20;;;2.90;99.90;;;;;;5038189;28;20293;-74
2021/01/11 06:16:25;;;;;;;29.97;14.83;;;2.90;99.90;;;;;;5033223;28;20207;-74
2021/01/11 06:18:53;;;;;;;28.30;14.73;;;2.80;99.90;;;;;;5034533;28;20318;-73
2021/01/11 06:21:21;;;;;;;28.17;14.73;;;2.80;99.90;;;;;;5018110;28;20334;-73
2021/01/11 06:23:48;;;;;;;26.50;14.87;;;2.90;99.90;;;;;;5032287;28;20337;-73
2021/01/11 06:26:26;;;;;;;27.20;15.17;;;2.80;99.90;;;;;;5014412;28;20258;-73
2021/01/11 06:28:54;;;;;;;23.03;13.07;;;2.80;99.90;;;;;;5034323;28;21110;-73
2021/01/11 06:31:33;;;;;;;28.07;14.30;;;2.80;99.90;;;;;;5036504;28;20302;-73
2021/01/11 06:34:00;;;;;;;26.93;14.10;;;2.90;99.90;;;;;;5037508;28;20216;-74
2021/01/11 06:36:32;;;;;;;30.93;14.37;;;2.90;99.90;;;;;;5036260;28;20371;-73
2021/01/11 06:39:07;;;;;;;27.90;14.30;;;2.90;99.90;;;;;;5016293;28;20331;-74
2021/01/11 06:41:35;;;;;;;20.97;13.33;;;2.90;99.90;;;;;;5039244;28;20227;-73
2021/01/11 06:44:09;;;;;;;19.37;12.63;;;2.90;99.90;;;;;;5037442;28;20305;-73
2021/01/11 06:46:42;;;;;;;29.23;15.53;;;2.90;99.90;;;;;;5037275;28;20208;-73
2021/01/11 06:49:25;;;;;;;26.73;13.67;;;2.90;99.90;;;;;;5020283;28;20223;-73
2021/01/11 06:52:07;;;;;;;24.73;13.60;;;2.90;99.90;;;;;;5041291;28;20205;-74
2021/01/11 06:54:41;;;;;;;29.07;13.57;;;3.00;99.90;;;;;;5020879;28;20634;-73
2021/01/11 06:57:09;;;;;;;21.93;12.03;;;3.00;99.90;;;;;;5033390;28;20368;-73
2021/01/11 06:59:39;;;;;;;23.27;15.20;;;2.90;99.90;;;;;;5037073;28;20212;-74
2021/01/11 07:02:42;;;;;;;22.53;13.20;;;2.90;99.90;;;;;;5010504;28;20306;-73
2021/01/11 07:05:37;;;;;;;22.93;13.83;;;3.00;99.90;;;;;;4995559;28;20317;-74
2021/01/11 07:08:04;;;;;;;19.40;11.63;;;3.00;99.90;;;;;;5042341;28;20215;-73
2021/01/11 07:10:30;;;;;;;20.53;12.43;;;3.00;99.90;;;;;;5037515;28;20207;-74
2021/01/11 07:13:19;;;;;;;24.77;13.37;;;3.00;99.90;;;;;;5031120;28;20207;-73
2021/01/11 07:16:05;;;;;;;20.90;10.47;;;2.90;99.90;;;;;;5036625;28;20232;-74
2021/01/11 07:18:38;;;;;;;18.60;11.47;;;3.00;99.90;;;;;;5040182;28;20243;-74
2021/01/11 07:21:26;;;;;;;21.93;12.77;;;2.90;99.90;;;;;;5035405;28;20355;-74
2021/01/11 07:23:55;;;;;;;21.07;12.00;;;2.90;99.90;;;;;;5035807;28;20764;-73
2021/01/11 07:26:25;;;;;;;20.87;13.03;;;3.00;99.90;;;;;;5026108;28;20228;-74
2021/01/11 07:29:02;;;;;;;26.83;12.90;;;3.00;99.90;;;;;;5041236;28;20292;-74
2021/01/11 07:31:39;;;;;;;22.83;12.50;;;3.00;99.90;;;;;;5035369;28;20282;-74
2021/01/11 07:34:07;;;;;;;24.43;13.20;;;3.00;99.90;;;;;;5034138;28;20278;-73
2021/01/11 07:36:49;;;;;;;23.67;12.50;;;3.00;99.90;;;;;;5042402;28;20282;-74
2021/01/11 07:39:30;;;;;;;23.23;13.03;;;3.00;99.90;;;;;;5033110;28;20279;-74
2021/01/11 07:42:02;;;;;;;21.57;12.53;;;2.90;99.90;;;;;;5029863;28;20208;-73
2021/01/11 07:44:34;;;;;;;19.23;10.50;;;2.90;99.90;;;;;;5038616;28;20221;-74
2021/01/11 07:47:13;;;;;;;22.90;14.07;;;2.90;99.90;;;;;;5038306;28;20680;-74
2021/01/11 07:49:41;;;;;;;22.60;12.73;;;2.90;99.90;;;;;;5033050;28;20291;-73
2021/01/11 07:52:14;;;;;;;22.97;12.50;;;2.90;99.90;;;;;;5021640;28;20684;-74
2021/01/11 07:54:41;;;;;;;19.83;12.23;;;2.90;99.90;;;;;;5040946;28;20240;-74
2021/01/11 07:57:16;;;;;;;23.53;13.00;;;2.90;99.90;;;;;;5036478;28;20201;-74
2021/01/11 07:59:43;;;;;;;18.57;12.17;;;2.80;99.90;;;;;;5038078;28;20291;-74
2021/01/11 08:02:12;;;;;;;23.77;13.40;;;2.80;99.90;;;;;;5034329;28;20231;-73
2021/01/11 08:04:39;;;;;;;23.53;12.63;;;2.90;99.90;;;;;;5019607;28;20257;-74
2021/01/11 08:07:13;;;;;;;20.30;13.20;;;2.90;99.90;;;;;;5035306;28;20196;-74
2021/01/11 08:09:41;;;;;;;24.13;13.37;;;2.90;99.90;;;;;;5005439;28;20258;-75
2021/01/11 08:12:10;;;;;;;22.57;12.30;;;2.90;99.90;;;;;;5025430;28;20288;-74
2021/01/11 08:14:39;;;;;;;21.50;10.77;;;3.00;99.90;;;;;;5040847;28;20212;-73
2021/01/11 08:17:11;;;;;;;23.07;12.50;;;3.00;99.90;;;;;;5022199;28;20293;-74
2021/01/11 08:19:41;;;;;;;25.40;12.37;;;3.00;99.90;;;;;;5020851;28;20664;-73
2021/01/11 08:22:10;;;;;;;22.00;12.40;;;3.00;99.90;;;;;;5048693;28;20204;-73
2021/01/11 08:24:37;;;;;;;23.03;12.77;;;3.10;99.90;;;;;;5036964;28;20352;-72
2021/01/11 08:27:11;;;;;;;23.37;13.93;;;3.10;99.90;;;;;;5031745;28;20947;-72
2021/01/11 08:29:42;;;;;;;23.97;13.20;;;3.10;99.90;;;;;;5033378;28;20247;-72
2021/01/11 08:32:16;;;;;;;24.30;13.50;;;3.10;99.90;;;;;;5039772;28;20613;-73
2021/01/11 08:34:43;;;;;;;24.43;13.53;;;3.20;99.90;;;;;;5042804;28;20245;-73
2021/01/11 08:37:39;;;;;;;19.53;12.03;;;3.10;99.90;;;;;;5014991;28;20633;-72
2021/01/11 08:40:08;;;;;;;24.60;13.00;;;3.20;99.90;;;;;;5029699;28;20239;-72
2021/01/11 08:42:37;;;;;;;19.07;11.37;;;3.20;99.90;;;;;;5040139;28;20199;-72
2021/01/11 08:45:34;;;;;;;19.03;12.23;;;3.20;99.90;;;;;;5025856;28;20230;-72
2021/01/11 08:48:06;;;;;;;24.33;12.77;;;3.30;99.90;;;;;;5042458;28;20191;-72
2021/01/11 08:50:41;;;;;;;16.83;11.47;;;3.30;99.90;;;;;;5036346;28;20290;-72
2021/01/11 08:53:25;;;;;;;21.97;13.00;;;3.30;99.90;;;;;;5025224;28;20279;-72
2021/01/11 08:56:12;;;;;;;16.23;11.33;;;3.30;99.90;;;;;;5039548;28;20204;-72
2021/01/11 08:58:50;;;;;;;21.30;11.03;;;3.40;99.90;;;;;;5036711;28;20204;-71
2021/01/11 09:01:24;;;;;;;18.47;11.03;;;3.40;99.90;;;;;;5052994;28;20211;-72
2021/01/11 09:03:58;;;;;;;18.70;11.23;;;3.30;99.90;;;;;;5019780;28;20235;-71
2021/01/11 09:06:41;;;;;;;19.13;11.07;;;3.40;99.90;;;;;;5040587;28;20267;-71
2021/01/11 09:09:09;;;;;;;19.23;8.93;;;3.40;99.90;;;;;;5040936;28;20227;-71
2021/01/11 09:11:37;;;;;;;21.70;10.03;;;3.50;99.90;;;;;;5041156;28;20193;-72
2021/01/11 09:14:08;;;;;;;16.00;9.47;;;3.50;99.90;;;;;;5021078;28;20244;-72
2021/01/11 09:16:35;;;;;;;18.00;11.07;;;3.50;99.90;;;;;;5039600;28;20292;-72
2021/01/11 09:19:10;;;;;;;14.83;8.37;;;3.60;99.90;;;;;;5040516;28;20249;-75
2021/01/11 09:21:41;;;;;;;15.10;8.80;;;3.60;99.90;;;;;;5039565;28;20207;-73
2021/01/11 09:24:08;;;;;;;14.80;9.87;;;3.60;99.90;;;;;;5036514;28;20252;-73
2021/01/11 09:26:36;;;;;;;16.77;10.07;;;3.60;99.90;;;;;;5040774;28;20201;-72
2021/01/11 09:29:03;;;;;;;18.57;10.17;;;3.70;99.90;;;;;;5024135;28;20569;-72
2021/01/11 09:31:29;;;;;;;16.87;9.47;;;3.70;99.90;;;;;;5034606;28;20208;-73
2021/01/11 09:34:01;;;;;;;15.97;9.53;;;3.70;99.90;;;;;;5031218;28;20213;-71
2021/01/11 09:36:38;;;;;;;13.90;9.00;;;3.70;99.90;;;;;;5044668;28;20503;-72
2021/01/11 09:39:07;;;;;;;16.83;9.50;;;3.70;99.90;;;;;;5032601;28;20274;-72
2021/01/11 09:41:51;;;;;;;15.17;9.33;;;3.70;99.90;;;;;;5039618;28;20216;-71
2021/01/11 09:44:18;;;;;;;15.13;9.23;;;3.80;99.90;;;;;;5040961;28;20626;-72
2021/01/11 09:46:48;;;;;;;16.30;9.20;;;3.80;99.90;;;;;;5036322;28;20196;-73
2021/01/11 09:49:15;;;;;;;16.33;9.33;;;3.80;99.90;;;;;;5041200;28;20647;-72
2021/01/11 09:51:41;;;;;;;12.53;8.20;;;3.90;99.90;;;;;;5041382;28;20581;-73
2021/01/11 09:54:08;;;;;;;16.07;9.60;;;3.90;99.90;;;;;;5029866;28;20243;-73
2021/01/11 09:56:36;;;;;;;15.77;9.37;;;4.00;99.90;;;;;;5024780;28;20364;-73
2021/01/11 09:59:03;;;;;;;15.70;8.70;;;4.00;99.90;;;;;;5040679;28;20625;-72
2021/01/11 10:01:39;;;;;;;13.00;7.87;;;4.00;99.90;;;;;;5035460;28;20266;-72
2021/01/11 10:04:07;;;;;;;12.80;8.30;;;3.90;99.90;;;;;;5046894;28;20323;-73
2021/01/11 10:06:53;;;;;;;13.90;8.83;;;4.00;99.90;;;;;;5040112;28;20254;-72
2021/01/11 10:09:25;;;;;;;13.30;7.77;;;4.00;99.90;;;;;;5041605;28;20261;-74
2021/01/11 10:12:03;;;;;;;14.30;8.83;;;4.00;99.90;;;;;;5042994;28;20196;-73
2021/01/11 10:14:30;;;;;;;16.10;8.30;;;4.00;99.90;;;;;;5037513;28;20207;-72
2021/01/11 10:16:57;;;;;;;14.57;8.67;;;4.10;99.90;;;;;;5010137;28;20969;-72
2021/01/11 10:19:26;;;;;;;14.87;8.97;;;4.00;99.90;;;;;;5033127;28;20212;-72
2021/01/11 10:21:54;;;;;;;16.43;7.70;;;4.10;99.90;;;;;;5035814;28;20213;-72
2021/01/11 10:24:23;;;;;;;13.70;8.47;;;4.10;99.90;;;;;;5021832;28;20811;-72
2021/01/11 10:26:51;;;;;;;12.63;7.93;;;4.10;99.90;;;;;;5054178;28;20832;-72
2021/01/11 10:29:19;;;;;;;13.53;9.17;;;4.10;99.90;;;;;;5036206;28;20625;-72
2021/01/11 10:31:45;;;;;;;13.33;7.93;;;4.20;99.90;;;;;;5041405;28;20562;-73
2021/01/11 10:34:13;;;;;;;11.37;7.33;;;4.20;99.90;;;;;;5028063;28;20193;-72
2021/01/11 10:36:45;;;;;;;14.50;8.50;;;4.20;99.90;;;;;;5044643;28;21188;-73
2021/01/11 10:39:13;;;;;;;11.73;7.03;;;4.20;99.90;;;;;;5030332;28;20554;-73
2021/01/11 10:41:39;;;;;;;16.50;7.90;;;4.20;99.90;;;;;;5039041;28;20799;-73
2021/01/11 10:44:07;;;;;;;18.63;9.13;;;4.20;99.90;;;;;;5041801;28;20409;-72
2021/01/11 10:46:35;;;;;;;10.63;7.43;;;4.20;99.90;;;;;;5035566;28;20410;-72
2021/01/11 10:49:02;;;;;;;15.80;8.23;;;4.20;99.90;;;;;;5036075;28;20539;-72
2021/01/11 10:51:32;;;;;;;12.60;7.87;;;4.30;99.90;;;;;;5021472;28;20199;-73
2021/01/11 10:53:58;;;;;;;13.73;8.00;;;4.20;99.90;;;;;;5034237;28;20302;-72
2021/01/11 10:56:26;;;;;;;12.13;8.30;;;4.20;99.90;;;;;;5034393;28;20653;-71
2021/01/11 10:58:52;;;;;;;13.20;8.40;;;4.20;99.90;;;;;;5056476;28;20212;-73
2021/01/11 11:01:19;;;;;;;13.93;8.17;;;4.30;99.90;;;;;;5019801;28;20231;-72
2021/01/11 11:03:45;;;;;;;14.77;8.83;;;4.30;99.90;;;;;;5036025;28;20216;-75
2021/01/11 11:06:13;;;;;;;10.90;6.97;;;4.30;99.90;;;;;;5022416;28;20222;-72
2021/01/11 11:08:40;;;;;;;12.00;8.40;;;4.20;99.90;;;;;;5037079;28;20203;-72
2021/01/11 11:11:07;;;;;;;12.43;7.80;;;4.30;99.90;;;;;;5033013;28;20315;-73
2021/01/11 11:13:34;;;;;;;15.33;8.67;;;4.30;99.90;;;;;;5016216;28;20247;-74
2021/01/11 11:16:06;;;;;;;10.30;7.50;;;4.40;99.90;;;;;;5019090;28;20808;-73
2021/01/11 11:18:36;;;;;;;13.60;7.20;;;4.40;99.90;;;;;;5025553;28;20267;-73
2021/01/11 11:21:07;;;;;;;10.27;6.53;;;4.40;99.90;;;;;;5023679;28;21280;-75
2021/01/11 11:23:34;;;;;;;10.63;6.70;;;4.30;99.90;;;;;;5029670;28;20197;-76
2021/01/11 11:26:02;;;;;;;13.03;7.87;;;4.40;99.90;;;;;;5039257;28;20216;-73
2021/01/11 11:28:29;;;;;;;11.37;7.63;;;4.40;99.90;;;;;;5037604;28;20656;-74
2021/01/11 11:30:56;;;;;;;11.63;7.77;;;4.50;99.90;;;;;;5034422;28;20208;-73
2021/01/11 11:33:23;;;;;;;12.50;7.70;;;4.50;99.90;;;;;;5019600;28;20296;-73
2021/01/11 11:35:51;;;;;;;15.43;7.70;;;4.50;99.90;;;;;;5023236;28;20281;-73
2021/01/11 11:38:21;;;;;;;12.00;8.00;;;4.50;99.90;;;;;;5027291;28;21092;-73
2021/01/11 11:40:50;;;;;;;11.97;8.40;;;4.50;99.90;;;;;;5037217;28;20207;-76
2021/01/11 11:43:18;;;;;;;13.57;8.13;;;4.50;99.90;;;;;;5038534;28;20283;-75
2021/01/11 11:45:45;;;;;;;14.47;8.60;;;4.50;99.90;;;;;;5019434;28;20679;-72
2021/01/11 11:48:13;;;;;;;11.87;8.50;;;4.50;99.90;;;;;;5022117;28;20216;-73
2021/01/11 11:50:40;;;;;;;11.93;7.63;;;4.50;99.90;;;;;;5038170;28;20200;-76
2021/01/11 11:53:07;;;;;;;11.37;7.17;;;4.60;99.90;;;;;;5035990;28;20285;-73
2021/01/11 11:55:34;;;;;;;14.20;8.30;;;4.50;99.90;;;;;;5016198;28;20205;-73
2021/01/11 11:58:00;;;;;;;16.23;8.37;;;4.50;99.90;;;;;;5023101;28;20208;-73
2021/01/11 12:00:27;;;;;;;12.77;8.07;;;4.50;99.90;;;;;;5031962;28;20209;-72
2021/01/11 12:03:13;;;;;;;11.20;7.80;;;4.60;99.90;;;;;;5008456;28;20228;-74
2021/01/11 12:05:40;;;;;;;17.00;9.20;;;4.50;99.90;;;;;;5019066;28;20216;-73
2021/01/11 12:08:06;;;;;;;13.27;7.83;;;4.60;99.90;;;;;;5035320;28;20668;-73
2021/01/11 12:10:32;;;;;;;14.97;8.27;;;4.60;99.90;;;;;;5032735;28;20208;-76
2021/01/11 12:12:59;;;;;;;14.10;8.43;;;4.60;99.90;;;;;;5039584;28;20215;-73
2021/01/11 12:15:25;;;;;;;14.53;9.40;;;4.50;99.90;;;;;;5016099;28;20207;-72
2021/01/11 12:17:53;;;;;;;14.13;9.00;;;4.60;99.90;;;;;;5025374;28;20236;-73
2021/01/11 12:20:19;;;;;;;14.13;8.43;;;4.60;99.90;;;;;;5031691;28;20563;-73
2021/01/11 12:22:45;;;;;;;13.73;9.00;;;4.60;99.90;;;;;;5007709;28;20230;-72
2021/01/11 12:25:12;;;;;;;11.63;7.60;;;4.50;99.90;;;;;;5031292;28;20261;-73
2021/01/11 12:27:40;;;;;;;14.77;9.63;;;4.50;99.90;;;;;;5008400;28;20385;-73
2021/01/11 12:30:07;;;;;;;12.97;8.80;;;4.50;99.90;;;;;;5032931;28;20265;-75
2021/01/11 12:32:36;;;;;;;11.57;8.20;;;4.50;99.90;;;;;;5020101;28;20264;-75
2021/01/11 12:35:03;;;;;;;14.40;9.80;;;4.50;99.90;;;;;;5035681;28;20256;-73
2021/01/11 12:37:29;;;;;;;14.90;9.30;;;4.50;99.90;;;;;;5033710;28;20258;-74
2021/01/11 12:39:55;;;;;;;16.30;8.47;;;4.50;99.90;;;;;;5018275;28;20208;-72
2021/01/11 12:42:22;;;;;;;11.70;9.03;;;4.50;99.90;;;;;;5020437;28;20220;-72
2021/01/11 12:44:49;;;;;;;16.23;8.63;;;4.50;99.90;;;;;;5036778;28;20523;-73
2021/01/11 12:47:15;;;;;;;13.13;8.50;;;4.50;99.90;;;;;;5036153;28;20248;-73
2021/01/11 12:49:43;;;;;;;12.87;9.20;;;4.50;99.90;;;;;;5035618;28;20208;-72
2021/01/11 12:52:13;;;;;;;13.33;8.17;;;4.50;99.90;;;;;;5039629;28;20224;-72
2021/01/11 12:54:39;;;;;;;11.53;7.90;;;4.60;99.90;;;;;;5024635;28;20211;-72